Time;durP1;ratioP1;P1;durP2;ratioP2;P2;SDS_P1;SDS_P2;PMS_P1;PMS_P2;Temp;Humidity;BMP_temperature;BMP_pressure;BME280_temperature;BME280_humidity;BME280_pressure;Samples;Min_cycle;Max_cycle;Signal;HPM_P1;HPM_P2
2021/12/25 00:00:56;;;;;;;2.67;2.47;;;22.30;48.70;;;;;;5056475;28;20548;-69
2021/12/25 00:03:23;;;;;;;2.75;2.55;;;22.30;48.70;;;;;;5039529;28;20177;-69
2021/12/25 00:05:52;;;;;;;3.88;3.15;;;22.30;48.80;;;;;;5055993;28;20280;-68
2021/12/25 00:08:23;;;;;;;3.00;2.60;;;22.30;48.80;;;;;;5055823;28;20204;-69
2021/12/25 00:10:50;;;;;;;3.00;2.70;;;22.30;48.80;;;;;;5056056;28;20640;-69
2021/12/25 00:13:19;;;;;;;2.78;2.50;;;22.30;48.70;;;;;;5055934;28;20193;-69
2021/12/25 00:15:45;;;;;;;2.88;2.67;;;22.30;48.70;;;;;;5039544;28;20190;-67
2021/12/25 00:18:11;;;;;;;3.30;3.00;;;22.30;48.80;;;;;;5075644;22;20257;-72
2021/12/25 00:20:37;;;;;;;3.08;2.80;;;22.30;48.80;;;;;;5019120;28;20221;-71
2021/12/25 00:23:07;;;;;;;4.20;3.80;;;22.30;48.70;;;;;;5035482;28;20264;-72
2021/12/25 00:25:39;;;;;;;3.42;3.13;;;22.30;48.70;;;;;;5035284;28;20229;-72
2021/12/25 00:36:09;;;;;;;3.05;2.53;;;22.30;48.70;;;;;;5031499;28;20183;-72
2021/12/25 00:38:37;;;;;;;3.60;3.20;;;22.30;48.70;;;;;;5014903;28;20289;-72
2021/12/25 00:41:04;;;;;;;4.20;3.33;;;22.30;48.70;;;;;;5031745;28;20190;-72
2021/12/25 00:43:30;;;;;;;3.35;3.05;;;22.30;48.70;;;;;;5031139;28;20187;-71
2021/12/25 00:45:56;;;;;;;3.83;3.47;;;22.30;48.60;;;;;;5014919;28;20299;-69
2021/12/25 00:48:22;;;;;;;3.40;2.97;;;22.30;48.60;;;;;;5015274;28;20314;-71
2021/12/25 00:50:48;;;;;;;3.30;3.00;;;22.30;48.60;;;;;;5015858;28;20198;-72
2021/12/25 00:53:14;;;;;;;3.47;3.17;;;22.30;48.70;;;;;;5015816;28;20651;-72
2021/12/25 00:55:41;;;;;;;3.97;3.55;;;22.30;48.70;;;;;;5015731;28;20183;-72
2021/12/25 00:58:06;;;;;;;3.80;3.50;;;22.30;48.70;;;;;;5031647;28;20246;-72
2021/12/25 01:00:33;;;;;;;3.85;3.55;;;22.30;48.70;;;;;;5015612;28;20233;-72
2021/12/25 01:02:59;;;;;;;3.60;3.30;;;22.30;48.60;;;;;;5015332;28;20198;-72
2021/12/25 01:05:25;;;;;;;3.95;3.58;;;22.30;48.60;;;;;;5031763;28;20226;-72
2021/12/25 01:07:51;;;;;;;3.60;3.30;;;22.30;48.60;;;;;;5014858;28;20199;-72
2021/12/25 01:10:23;;;;;;;3.95;3.55;;;22.30;48.70;;;;;;5030857;28;20179;-72
2021/12/25 01:15:34;;;;;;;3.55;3.25;;;22.30;48.70;;;;;;5031591;28;20203;-72
2021/12/25 01:21:09;;;;;;;3.72;3.30;;;22.30;48.70;;;;;;5031494;28;20178;-71
2021/12/25 01:23:57;;;;;;;2.95;2.75;;;22.30;48.60;;;;;;5014945;28;20247;-72
2021/12/25 01:31:51;;;;;;;5.38;3.40;;;22.30;48.60;;;;;;5031674;28;20236;-71
2021/12/25 01:48:43;;;;;;;2.85;2.50;;;22.30;48.60;;;;;;5031167;28;20207;-72
2021/12/25 01:51:10;;;;;;;2.78;2.58;;;22.30;49.20;;;;;;5032448;28;20183;-72
2021/12/25 01:53:36;;;;;;;2.70;2.50;;;22.30;48.60;;;;;;5031158;28;20179;-72
2021/12/25 01:56:04;;;;;;;2.92;2.60;;;22.30;48.60;;;;;;5014514;28;20183;-72
2021/12/25 01:58:31;;;;;;;2.55;2.35;;;22.30;48.60;;;;;;5014680;28;20199;-72
2021/12/25 02:00:59;;;;;;;2.70;2.50;;;22.30;48.60;;;;;;5031327;28;20202;-72
2021/12/25 02:03:30;;;;;;;3.00;2.80;;;22.30;48.50;;;;;;5014522;28;20183;-72
2021/12/25 02:05:58;;;;;;;3.10;2.80;;;22.30;48.60;;;;;;5014410;28;20305;-72
2021/12/25 02:08:33;;;;;;;2.50;2.30;;;22.30;48.50;;;;;;5032297;28;20198;-72
2021/12/25 02:11:00;;;;;;;2.75;2.55;;;22.30;48.40;;;;;;5030718;28;20187;-72
2021/12/25 02:13:26;;;;;;;2.50;2.30;;;22.30;48.50;;;;;;5030884;28;20593;-72
2021/12/25 02:15:56;;;;;;;2.55;2.35;;;22.30;48.40;;;;;;5014495;28;20278;-72
2021/12/25 02:18:54;;;;;;;2.60;2.40;;;22.30;48.40;;;;;;5030772;28;20222;-72
2021/12/25 02:21:33;;;;;;;2.90;2.58;;;22.30;48.40;;;;;;5014380;28;20207;-72
2021/12/25 02:24:00;;;;;;;2.88;2.67;;;22.30;48.40;;;;;;5014362;28;20178;-72
2021/12/25 02:26:26;;;;;;;2.60;2.38;;;22.30;48.40;;;;;;5014166;28;20219;-72
2021/12/25 02:28:53;;;;;;;2.00;1.90;;;22.30;48.40;;;;;;5013945;28;20187;-72
2021/12/25 02:31:20;;;;;;;1.90;1.80;;;22.30;48.50;;;;;;5030895;28;20175;-72
2021/12/25 02:33:46;;;;;;;2.60;2.40;;;22.30;48.50;;;;;;5014131;28;20317;-72
2021/12/25 02:36:14;;;;;;;2.72;2.53;;;22.30;48.40;;;;;;5030644;28;20207;-72
2021/12/25 02:38:43;;;;;;;2.13;1.92;;;22.30;48.40;;;;;;5014149;28;20207;-72
2021/12/25 02:41:11;;;;;;;2.63;2.40;;;22.30;48.50;;;;;;5014234;28;20278;-72
2021/12/25 02:43:38;;;;;;;2.40;2.20;;;22.30;48.40;;;;;;5014150;28;20191;-72
2021/12/25 02:46:06;;;;;;;2.30;2.10;;;22.30;48.40;;;;;;5013952;28;20630;-72
2021/12/25 02:48:36;;;;;;;2.15;2.00;;;22.30;48.40;;;;;;5030366;28;20202;-72
2021/12/25 02:51:07;;;;;;;1.90;1.80;;;22.30;48.40;;;;;;5030513;28;20611;-72
2021/12/25 02:53:34;;;;;;;2.40;2.20;;;22.30;48.40;;;;;;5031794;28;20187;-72
2021/12/25 02:56:00;;;;;;;2.30;2.10;;;22.30;48.40;;;;;;5016222;28;20183;-72
2021/12/25 02:58:30;;;;;;;2.05;1.85;;;22.30;48.40;;;;;;5017337;28;20207;-72
2021/12/25 03:01:06;;;;;;;2.10;1.90;;;22.30;48.40;;;;;;5033975;28;20194;-73
2021/12/25 03:03:33;;;;;;;2.25;2.05;;;22.30;48.40;;;;;;5017851;28;20191;-72
2021/12/25 03:06:05;;;;;;;2.00;1.80;;;22.30;48.40;;;;;;5017353;28;20226;-72
2021/12/25 03:08:31;;;;;;;1.90;1.80;;;22.30;48.40;;;;;;5017417;28;20219;-72
2021/12/25 03:11:03;;;;;;;2.75;2.33;;;22.30;48.40;;;;;;5017986;28;20197;-72
2021/12/25 03:13:43;;;;;;;1.77;1.67;;;22.30;48.40;;;;;;5016919;28;20639;-72
2021/12/25 03:16:11;;;;;;;2.15;1.98;;;22.30;48.40;;;;;;5033832;28;20194;-72
2021/12/25 03:18:46;;;;;;;2.45;2.25;;;22.30;48.40;;;;;;5017123;28;20229;-72
2021/12/25 03:21:13;;;;;;;2.70;2.35;;;22.30;48.40;;;;;;5033988;28;20167;-72
2021/12/25 03:23:41;;;;;;;2.33;2.20;;;22.30;48.40;;;;;;5017114;28;20187;-72
2021/12/25 03:26:08;;;;;;;1.98;1.88;;;22.30;48.40;;;;;;5033524;28;20207;-72
2021/12/25 03:28:39;;;;;;;1.92;1.83;;;22.30;48.40;;;;;;5016844;28;20209;-72
2021/12/25 03:31:14;;;;;;;1.88;1.77;;;22.30;48.40;;;;;;5016982;28;20630;-72
2021/12/25 03:33:40;;;;;;;2.40;2.20;;;22.30;48.40;;;;;;5017356;28;20175;-72
2021/12/25 03:36:07;;;;;;;1.77;1.60;;;22.30;48.40;;;;;;5028295;28;20285;-71
2021/12/25 03:38:33;;;;;;;1.70;1.60;;;22.30;48.40;;;;;;5028864;28;20278;-72
2021/12/25 03:41:00;;;;;;;1.83;1.73;;;22.30;48.40;;;;;;5036520;28;20293;-71
2021/12/25 03:43:28;;;;;;;1.90;1.80;;;22.30;48.40;;;;;;5020403;28;20193;-72
2021/12/25 03:45:55;;;;;;;1.95;1.83;;;22.30;48.40;;;;;;5020041;28;20685;-72
2021/12/25 03:57:37;;;;;;;2.70;2.50;;;22.30;48.40;;;;;;5036740;28;20182;-72
2021/12/25 03:59:12;;;;;;;1.83;1.70;;;22.30;48.40;;;;;;5036034;28;20190;-72
2021/12/25 04:04:32;;;;;;;1.70;1.60;;;22.30;48.40;;;;;;5036281;28;20191;-72
2021/12/25 04:07:05;;;;;;;2.08;1.88;;;22.30;48.40;;;;;;5035673;28;20218;-72
2021/12/25 04:09:34;;;;;;;1.90;1.80;;;22.30;48.40;;;;;;5019589;28;20187;-72
2021/12/25 04:12:07;;;;;;;2.28;2.03;;;22.30;48.40;;;;;;5019931;28;20281;-72
2021/12/25 04:14:37;;;;;;;2.65;2.45;;;22.30;48.40;;;;;;5036330;28;20266;-72
2021/12/25 04:17:05;;;;;;;2.63;2.42;;;22.30;48.40;;;;;;5035712;28;20225;-72
2021/12/25 04:19:33;;;;;;;2.53;2.33;;;22.30;48.40;;;;;;5019863;28;20673;-72
2021/12/25 04:22:06;;;;;;;2.70;2.50;;;22.30;48.40;;;;;;5019347;28;20273;-73
2021/12/25 04:24:34;;;;;;;2.42;2.22;;;22.30;48.40;;;;;;5019462;28;20692;-72
2021/12/25 04:27:00;;;;;;;2.00;1.90;;;22.30;48.40;;;;;;5019446;28;20222;-72
2021/12/25 04:49:06;;;;;;;1.73;1.63;;;22.30;48.30;;;;;;5035151;28;20281;-72
2021/12/25 05:05:02;;;;;;;1.70;1.60;;;22.20;48.30;;;;;;5052999;28;20236;-72
2021/12/25 05:07:34;;;;;;;1.73;1.63;;;22.30;48.40;;;;;;5019392;28;20614;-72
2021/12/25 05:10:00;;;;;;;1.85;1.75;;;22.20;48.30;;;;;;5018698;28;20189;-72
2021/12/25 05:12:26;;;;;;;1.45;1.35;;;22.20;48.30;;;;;;5035341;28;20645;-72
2021/12/25 05:14:52;;;;;;;1.60;1.50;;;22.20;48.30;;;;;;5034862;28;20182;-72
2021/12/25 05:17:18;;;;;;;1.80;1.70;;;22.20;48.30;;;;;;5018215;28;20567;-72
2021/12/25 05:19:44;;;;;;;2.10;2.00;;;22.20;48.30;;;;;;5017526;28;20197;-72
2021/12/25 05:22:14;;;;;;;2.42;2.22;;;22.20;48.30;;;;;;5052605;28;20297;-72
2021/12/25 05:24:40;;;;;;;2.40;2.20;;;22.20;48.30;;;;;;5034822;28;20202;-72
2021/12/25 05:27:06;;;;;;;2.10;1.92;;;22.20;48.30;;;;;;5018323;28;20269;-72
2021/12/25 05:29:34;;;;;;;2.13;2.03;;;22.20;48.30;;;;;;5034345;28;20186;-72
2021/12/25 05:32:04;;;;;;;2.35;2.15;;;22.20;48.30;;;;;;5034633;28;20206;-72
2021/12/25 05:34:43;;;;;;;1.85;1.75;;;22.20;48.20;;;;;;5019960;28;20179;-72
2021/12/25 05:37:35;;;;;;;1.80;1.70;;;22.20;48.20;;;;;;5008084;28;20257;-72
2021/12/25 05:40:23;;;;;;;1.25;1.23;;;22.20;48.30;;;;;;5051910;28;20270;-70
2021/12/25 05:42:51;;;;;;;1.58;1.48;;;22.20;48.20;;;;;;5034957;28;20182;-72
2021/12/25 05:45:19;;;;;;;2.00;1.88;;;22.20;48.20;;;;;;5018625;28;20298;-72
2021/12/25 05:48:12;;;;;;;2.17;2.08;;;22.20;48.30;;;;;;5036791;28;20296;-72
2021/12/25 05:50:56;;;;;;;1.85;1.75;;;22.20;48.20;;;;;;5037157;28;20182;-72
2021/12/25 05:53:28;;;;;;;1.40;1.30;;;22.20;48.30;;;;;;5018803;28;20178;-72
2021/12/25 05:56:24;;;;;;;1.50;1.40;;;22.20;48.20;;;;;;5038633;28;20251;-72
2021/12/25 05:59:10;;;;;;;1.67;1.58;;;22.20;48.30;;;;;;5036784;28;20198;-73
2021/12/25 06:01:54;;;;;;;1.85;1.75;;;22.20;48.30;;;;;;5037182;28;20186;-72
2021/12/25 06:04:24;;;;;;;2.08;1.98;;;22.20;48.30;;;;;;5018216;28;20190;-72
2021/12/25 06:06:50;;;;;;;2.15;2.00;;;22.20;48.30;;;;;;5034255;28;20705;-72
2021/12/25 06:09:15;;;;;;;1.58;1.48;;;22.20;48.30;;;;;;5034009;28;20186;-72
2021/12/25 06:11:43;;;;;;;1.60;1.50;;;22.20;48.30;;;;;;5034159;28;20546;-72
2021/12/25 06:14:16;;;;;;;1.80;1.70;;;22.20;48.20;;;;;;5014278;28;20279;-72
2021/12/25 06:16:58;;;;;;;1.50;1.40;;;22.20;48.20;;;;;;5014316;28;20273;-71
2021/12/25 06:19:33;;;;;;;1.48;1.38;;;22.20;48.30;;;;;;5064011;22;20236;-70
2021/12/25 06:22:18;;;;;;;1.35;1.25;;;22.20;48.30;;;;;;5051028;28;20182;-69
2021/12/25 06:24:58;;;;;;;1.48;1.40;;;22.20;48.30;;;;;;5035746;28;20210;-69
2021/12/25 06:27:43;;;;;;;1.80;1.70;;;22.20;48.30;;;;;;5045132;28;20190;-69
2021/12/25 06:30:25;;;;;;;1.70;1.60;;;22.20;48.20;;;;;;5052745;28;20229;-69
2021/12/25 06:32:58;;;;;;;1.95;1.85;;;22.20;48.30;;;;;;5043116;28;20171;-69
2021/12/25 06:35:42;;;;;;;1.42;1.33;;;22.20;48.20;;;;;;5035801;28;20182;-69
2021/12/25 06:38:27;;;;;;;1.40;1.30;;;22.20;48.20;;;;;;5034545;28;20210;-69
2021/12/25 06:41:03;;;;;;;1.42;1.33;;;22.20;48.20;;;;;;5051382;28;20579;-69
2021/12/25 06:43:30;;;;;;;1.88;1.77;;;22.20;48.30;;;;;;5034638;28;20183;-69
2021/12/25 06:45:56;;;;;;;1.80;1.70;;;22.20;48.30;;;;;;5034683;28;20215;-68
2021/12/25 06:48:25;;;;;;;2.00;1.90;;;22.20;48.20;;;;;;5040253;28;20199;-69
2021/12/25 06:51:28;;;;;;;2.35;2.25;;;22.20;48.20;;;;;;5041439;28;20214;-69
2021/12/25 06:54:18;;;;;;;1.80;1.70;;;22.10;48.20;;;;;;4998700;28;20205;-69
2021/12/25 06:56:54;;;;;;;1.70;1.60;;;22.20;48.20;;;;;;5036051;28;20185;-69
2021/12/25 06:59:24;;;;;;;1.70;1.60;;;22.20;48.20;;;;;;5018278;28;20290;-70
2021/12/25 07:01:51;;;;;;;2.05;1.95;;;22.20;48.30;;;;;;5018056;28;20290;-69
2021/12/25 07:04:35;;;;;;;1.90;1.80;;;22.20;48.20;;;;;;5035437;28;20186;-69
2021/12/25 07:07:27;;;;;;;2.33;2.13;;;22.20;48.30;;;;;;5031123;28;20206;-69
2021/12/25 07:10:06;;;;;;;2.28;2.15;;;22.20;48.20;;;;;;5034026;28;20256;-69
2021/12/25 07:12:47;;;;;;;1.88;1.77;;;22.10;48.20;;;;;;5019012;28;20183;-69
2021/12/25 07:15:47;;;;;;;1.63;1.52;;;22.20;48.20;;;;;;5025446;28;20192;-69
2021/12/25 07:18:27;;;;;;;1.95;1.85;;;22.20;48.20;;;;;;5035287;28;20162;-69
2021/12/25 07:21:08;;;;;;;1.80;1.70;;;22.20;48.20;;;;;;5033776;28;20201;-69
2021/12/25 07:23:51;;;;;;;2.50;2.30;;;22.20;48.20;;;;;;5036826;28;20172;-69
2021/12/25 07:26:27;;;;;;;2.35;2.22;;;22.20;48.20;;;;;;5033560;28;20207;-69
2021/12/25 07:29:14;;;;;;;1.60;1.50;;;22.10;48.10;;;;;;5013244;28;20219;-69
2021/12/25 07:31:39;;;;;;;1.60;1.50;;;22.10;48.20;;;;;;5037054;28;20183;-69
2021/12/25 07:34:05;;;;;;;1.52;1.42;;;22.20;48.20;;;;;;5045273;28;20232;-69
2021/12/25 07:36:31;;;;;;;1.92;1.83;;;22.20;48.20;;;;;;5033553;28;20210;-69
2021/12/25 07:38:57;;;;;;;1.70;1.60;;;22.20;48.20;;;;;;5050155;28;20702;-69
2021/12/25 07:41:26;;;;;;;1.50;1.40;;;22.20;48.20;;;;;;5032586;28;20183;-69
2021/12/25 07:43:52;;;;;;;1.40;1.30;;;22.10;48.20;;;;;;5049744;28;20184;-69
2021/12/25 07:46:27;;;;;;;1.45;1.40;;;22.10;48.10;;;;;;5048541;28;20202;-69
2021/12/25 07:48:53;;;;;;;1.80;1.70;;;22.20;48.20;;;;;;5032971;28;20203;-69
2021/12/25 07:51:18;;;;;;;1.77;1.67;;;22.20;48.20;;;;;;5033399;28;20241;-69
2021/12/25 07:53:45;;;;;;;1.67;1.58;;;22.20;48.20;;;;;;5034541;28;20193;-69
2021/12/25 07:56:12;;;;;;;2.30;2.20;;;22.10;48.10;;;;;;5049989;28;20175;-69
2021/12/25 07:58:42;;;;;;;2.28;2.08;;;22.20;48.20;;;;;;5049203;28;20221;-68
2021/12/25 08:01:10;;;;;;;2.38;2.17;;;22.20;48.20;;;;;;5025542;28;20191;-69
2021/12/25 08:03:36;;;;;;;2.33;2.22;;;22.10;48.10;;;;;;5033020;28;20576;-69
2021/12/25 08:06:03;;;;;;;2.50;2.30;;;22.10;48.10;;;;;;5034108;28;20196;-69
2021/12/25 08:08:29;;;;;;;2.47;2.28;;;22.10;48.20;;;;;;5049520;28;20190;-69
2021/12/25 08:10:56;;;;;;;2.78;2.58;;;22.10;48.10;;;;;;5016197;28;20290;-70
2021/12/25 08:13:23;;;;;;;2.20;2.08;;;22.10;48.10;;;;;;5049587;28;20639;-69
2021/12/25 08:15:49;;;;;;;2.33;2.13;;;22.10;48.10;;;;;;5034048;28;20182;-69
2021/12/25 08:18:15;;;;;;;1.90;1.80;;;22.10;48.10;;;;;;5049260;28;20191;-69
2021/12/25 08:21:04;;;;;;;1.73;1.63;;;22.20;48.20;;;;;;5033506;28;20225;-68
2021/12/25 08:23:49;;;;;;;1.63;1.52;;;22.20;48.20;;;;;;5033910;28;20182;-69
2021/12/25 08:26:34;;;;;;;2.47;2.28;;;22.10;48.20;;;;;;5033816;28;20295;-69
2021/12/25 08:29:19;;;;;;;2.70;2.50;;;22.10;48.20;;;;;;5033697;28;20293;-68
2021/12/25 08:32:20;;;;;;;1.75;1.65;;;22.10;48.20;;;;;;5051413;28;20292;-69
2021/12/25 08:35:05;;;;;;;1.70;1.60;;;22.20;48.30;;;;;;5051652;28;20256;-69
2021/12/25 08:37:36;;;;;;;1.90;1.80;;;22.20;48.30;;;;;;5036129;28;20205;-69
2021/12/25 08:40:06;;;;;;;1.98;1.88;;;22.20;48.30;;;;;;5052535;28;20206;-69
2021/12/25 08:42:32;;;;;;;1.50;1.40;;;22.10;48.20;;;;;;5048884;28;20643;-69
2021/12/25 08:47:26;;;;;;;2.08;1.98;;;22.10;48.20;;;;;;5038855;28;20685;-69
2021/12/25 08:49:53;;;;;;;2.30;2.20;;;22.10;48.20;;;;;;5053085;28;20216;-69
2021/12/25 08:52:21;;;;;;;2.50;2.30;;;22.10;48.20;;;;;;5035450;28;20244;-69
2021/12/25 08:54:48;;;;;;;2.70;2.50;;;22.10;48.20;;;;;;5048658;28;20187;-69
2021/12/25 08:57:16;;;;;;;2.72;2.40;;;22.10;48.20;;;;;;5040993;28;20233;-69
2021/12/25 08:59:43;;;;;;;2.35;2.25;;;22.10;48.20;;;;;;5062094;28;20212;-68
2021/12/25 09:02:14;;;;;;;2.58;2.38;;;22.20;48.30;;;;;;5052164;28;20186;-69
2021/12/25 09:04:43;;;;;;;2.60;2.40;;;22.10;48.20;;;;;;5052120;28;20221;-68
2021/12/25 09:07:10;;;;;;;2.63;2.10;;;22.10;48.20;;;;;;5068295;28;20694;-69
2021/12/25 09:09:37;;;;;;;1.75;1.65;;;22.10;48.20;;;;;;5047910;28;20210;-69
2021/12/25 09:12:06;;;;;;;1.90;1.80;;;22.20;48.30;;;;;;5031913;28;20190;-68
2021/12/25 09:14:32;;;;;;;2.05;1.95;;;22.10;48.20;;;;;;5031857;28;20175;-69
2021/12/25 09:16:58;;;;;;;1.85;1.75;;;22.10;48.20;;;;;;5031862;28;20190;-69
2021/12/25 09:19:24;;;;;;;1.98;1.88;;;22.10;48.20;;;;;;5031221;28;20592;-69
2021/12/25 09:21:50;;;;;;;1.80;1.70;;;22.10;48.20;;;;;;5031554;28;20179;-69
2021/12/25 09:24:16;;;;;;;1.98;1.88;;;22.10;48.20;;;;;;5015057;28;20180;-69
2021/12/25 09:26:43;;;;;;;2.20;2.10;;;22.10;48.20;;;;;;5031476;28;20589;-69
2021/12/25 09:29:09;;;;;;;1.70;1.60;;;22.10;48.20;;;;;;5031535;28;20544;-69
2021/12/25 09:31:35;;;;;;;1.92;1.83;;;22.10;48.20;;;;;;5031419;28;20225;-69
2021/12/25 09:34:01;;;;;;;1.95;1.85;;;22.20;48.20;;;;;;5031707;28;20179;-69
2021/12/25 09:36:27;;;;;;;1.98;1.88;;;22.20;48.30;;;;;;5031385;28;20229;-69
2021/12/25 09:38:54;;;;;;;2.15;2.05;;;22.20;48.20;;;;;;5014764;28;20211;-69
2021/12/25 09:41:20;;;;;;;2.47;2.28;;;22.10;48.20;;;;;;5031409;28;20270;-70
2021/12/25 09:43:48;;;;;;;2.38;2.17;;;22.10;48.20;;;;;;5031273;28;20270;-69
2021/12/25 09:46:17;;;;;;;2.50;2.30;;;22.20;48.30;;;;;;5031042;28;20211;-69
2021/12/25 09:48:43;;;;;;;2.60;2.40;;;22.10;48.20;;;;;;5044528;28;20177;-69
2021/12/25 09:51:10;;;;;;;2.92;2.40;;;22.10;48.20;;;;;;5036561;28;20182;-69
2021/12/25 09:53:36;;;;;;;2.55;2.35;;;22.10;48.20;;;;;;5027714;28;20313;-69
2021/12/25 09:56:03;;;;;;;3.28;2.58;;;22.20;48.20;;;;;;5050985;28;20186;-69
2021/12/25 09:58:29;;;;;;;2.70;2.40;;;22.10;48.20;;;;;;5048706;28;20190;-69
2021/12/25 10:00:57;;;;;;;2.05;1.95;;;22.10;48.20;;;;;;5025059;28;20203;-69
2021/12/25 10:03:39;;;;;;;1.90;1.80;;;22.10;48.20;;;;;;5049800;28;20190;-69
2021/12/25 10:06:05;;;;;;;2.13;2.03;;;22.10;48.20;;;;;;5050299;28;20223;-69
2021/12/25 10:08:31;;;;;;;2.10;2.00;;;22.10;48.20;;;;;;5021367;28;20282;-69
2021/12/25 10:11:01;;;;;;;1.80;1.70;;;22.10;48.20;;;;;;5054974;28;20178;-69
2021/12/25 10:13:34;;;;;;;2.00;1.90;;;22.20;48.40;;;;;;5042089;28;20175;-69
2021/12/25 10:16:25;;;;;;;2.40;2.20;;;22.20;48.30;;;;;;5052610;28;20193;-69
2021/12/25 10:18:54;;;;;;;2.53;2.33;;;22.10;48.30;;;;;;5030027;28;20216;-69
2021/12/25 10:21:26;;;;;;;2.38;2.28;;;22.10;48.30;;;;;;5034787;28;20198;-69
2021/12/25 10:24:06;;;;;;;2.60;2.40;;;22.10;48.40;;;;;;5036227;28;20270;-68
2021/12/25 10:26:35;;;;;;;2.42;2.22;;;22.10;48.30;;;;;;5018521;28;20301;-69
2021/12/25 10:29:26;;;;;;;2.10;1.90;;;22.10;48.40;;;;;;5034826;28;20195;-69
2021/12/25 10:31:55;;;;;;;1.90;1.80;;;22.10;48.40;;;;;;5035239;28;20199;-70
2021/12/25 10:34:24;;;;;;;2.10;1.90;;;22.20;48.40;;;;;;5035034;28;20183;-68
2021/12/25 10:36:58;;;;;;;2.10;1.90;;;22.20;48.40;;;;;;5036095;28;20183;-69
2021/12/25 10:39:27;;;;;;;2.10;2.00;;;22.10;48.40;;;;;;5034723;28;20268;-69
2021/12/25 10:42:06;;;;;;;2.50;2.30;;;22.20;48.40;;;;;;5034657;28;20175;-70
2021/12/25 10:44:37;;;;;;;3.25;2.35;;;22.20;48.80;;;;;;5051228;28;20179;-70
2021/12/25 10:47:26;;;;;;;1.90;1.80;;;22.20;49.00;;;;;;5041311;28;20213;-69
2021/12/25 10:49:56;;;;;;;2.58;2.10;;;22.20;49.00;;;;;;5037661;28;20221;-69
2021/12/25 10:52:39;;;;;;;4.88;2.13;;;22.20;48.90;;;;;;5071366;28;20186;-70
2021/12/25 10:55:15;;;;;;;2.25;2.05;;;22.20;49.00;;;;;;5054698;28;20257;-70
2021/12/25 10:57:49;;;;;;;1.95;1.85;;;22.20;48.90;;;;;;5054066;28;20224;-70
2021/12/25 11:00:21;;;;;;;2.35;2.15;;;22.20;49.00;;;;;;5054506;28;20207;-70
2021/12/25 11:02:51;;;;;;;2.25;2.08;;;22.20;49.00;;;;;;5038300;28;20185;-70
2021/12/25 11:05:35;;;;;;;1.80;1.70;;;22.20;49.00;;;;;;5053342;28;20567;-68
2021/12/25 11:08:15;;;;;;;2.38;2.17;;;22.20;49.00;;;;;;5046016;28;20654;-70
2021/12/25 11:10:59;;;;;;;2.40;2.20;;;22.10;48.90;;;;;;5017535;28;20211;-69
2021/12/25 11:13:48;;;;;;;2.13;2.00;;;22.10;48.90;;;;;;5034020;28;20175;-69
2021/12/25 11:16:31;;;;;;;2.00;1.90;;;22.20;48.90;;;;;;5033988;28;20186;-69
2021/12/25 11:19:10;;;;;;;2.15;2.05;;;22.10;48.90;;;;;;5033873;28;20584;-68
2021/12/25 11:21:59;;;;;;;2.00;1.90;;;22.20;49.00;;;;;;5018017;28;20172;-69
2021/12/25 11:24:35;;;;;;;2.40;2.20;;;22.20;49.00;;;;;;5033770;28;20176;-69
2021/12/25 11:27:06;;;;;;;2.40;2.20;;;22.20;49.00;;;;;;5017556;28;20290;-69
2021/12/25 11:29:35;;;;;;;2.13;2.03;;;22.20;48.90;;;;;;5049070;28;20252;-68
2021/12/25 11:32:05;;;;;;;2.28;1.80;;;22.10;48.90;;;;;;5053462;28;20186;-69
2021/12/25 11:34:32;;;;;;;2.17;2.08;;;22.20;49.00;;;;;;5053687;28;20178;-69
2021/12/25 11:37:00;;;;;;;2.05;1.85;;;22.20;48.90;;;;;;5036781;28;20221;-69
2021/12/25 11:39:29;;;;;;;2.05;1.90;;;22.20;48.90;;;;;;5036754;28;20199;-70
2021/12/25 11:42:06;;;;;;;1.75;1.65;;;22.20;48.90;;;;;;5050039;28;20176;-70
2021/12/25 11:44:48;;;;;;;1.98;1.88;;;22.10;48.90;;;;;;5033987;28;20240;-70
2021/12/25 11:47:42;;;;;;;1.95;1.85;;;22.20;48.90;;;;;;5037251;28;20211;-70
2021/12/25 11:50:34;;;;;;;2.58;2.22;;;22.10;48.90;;;;;;5033097;28;20215;-70
2021/12/25 11:53:21;;;;;;;2.53;2.00;;;22.10;48.90;;;;;;5017104;28;20191;-70
2021/12/25 11:59:14;;;;;;;2.63;2.13;;;22.10;48.90;;;;;;5032942;28;20194;-70
2021/12/25 12:01:44;;;;;;;2.97;2.78;;;22.20;49.00;;;;;;5011978;28;20194;-70
2021/12/25 12:04:21;;;;;;;3.05;2.47;;;22.20;48.90;;;;;;5033975;28;20635;-69
2021/12/25 12:06:47;;;;;;;3.70;2.38;;;22.20;48.90;;;;;;5037494;28;20222;-69
2021/12/25 12:09:24;;;;;;;3.03;2.65;;;22.20;48.90;;;;;;5042176;28;20203;-70
2021/12/25 12:12:30;;;;;;;2.08;1.88;;;22.20;48.90;;;;;;5033044;28;20183;-69
2021/12/25 12:15:15;;;;;;;2.20;2.00;;;22.20;49.50;;;;;;5048621;28;20259;-70
2021/12/25 12:18:26;;;;;;;2.40;2.20;;;22.10;48.90;;;;;;5034171;28;20194;-70
2021/12/25 12:21:04;;;;;;;2.40;2.20;;;22.20;49.00;;;;;;5105225;23;20237;-70
2021/12/25 12:26:44;;;;;;;1.98;1.88;;;22.20;49.00;;;;;;5024716;28;20233;-70
2021/12/25 12:29:11;;;;;;;2.60;2.40;;;22.20;49.00;;;;;;5072800;28;20243;-70
2021/12/25 12:31:44;;;;;;;1.90;1.80;;;22.20;49.00;;;;;;5073363;28;20188;-69
2021/12/25 12:34:28;;;;;;;2.25;2.05;;;22.20;49.00;;;;;;5072370;28;20182;-68
2021/12/25 12:37:14;;;;;;;2.45;2.25;;;22.10;48.90;;;;;;5073597;28;20694;-68
2021/12/25 12:39:56;;;;;;;2.50;2.30;;;22.20;49.00;;;;;;5055535;28;20201;-69
2021/12/25 12:42:42;;;;;;;1.75;1.63;;;22.20;49.00;;;;;;5055866;28;20184;-70
2021/12/25 12:45:14;;;;;;;2.28;2.08;;;22.20;49.00;;;;;;5055342;28;20193;-69
2021/12/25 12:47:41;;;;;;;1.92;1.80;;;22.10;49.00;;;;;;5057979;28;20185;-70
2021/12/25 12:50:11;;;;;;;2.30;2.10;;;22.20;49.00;;;;;;5040018;28;20217;-70
2021/12/25 12:52:41;;;;;;;2.10;2.00;;;22.20;49.10;;;;;;5072046;28;20734;-69
2021/12/25 12:55:25;;;;;;;2.40;2.20;;;22.20;49.10;;;;;;5073367;28;20212;-70
2021/12/25 12:58:16;;;;;;;2.05;1.92;;;22.20;49.00;;;;;;5055382;28;20199;-70
2021/12/25 13:00:55;;;;;;;2.40;2.20;;;22.10;49.00;;;;;;5055560;28;20209;-70
2021/12/25 13:03:22;;;;;;;4.50;2.00;;;22.20;49.00;;;;;;5055147;28;20660;-68
2021/12/25 13:05:55;;;;;;;2.85;2.08;;;22.20;49.30;;;;;;5072891;28;20197;-68
2021/12/25 13:08:33;;;;;;;2.83;1.85;;;22.20;49.60;;;;;;5054792;28;20220;-69
2021/12/25 13:11:16;;;;;;;2.38;2.17;;;22.20;49.50;;;;;;5054905;28;20209;-69
2021/12/25 13:13:57;;;;;;;3.58;2.08;;;22.20;49.40;;;;;;5071652;28;20180;-69
2021/12/25 13:16:36;;;;;;;2.75;2.28;;;22.20;49.40;;;;;;5054953;28;20179;-69
2021/12/25 13:19:05;;;;;;;4.22;2.70;;;22.20;49.40;;;;;;5071088;28;20185;-69
2021/12/25 13:21:33;;;;;;;3.65;2.95;;;22.20;49.40;;;;;;5072640;28;20263;-69
2021/12/25 13:24:12;;;;;;;2.85;2.47;;;22.20;49.40;;;;;;5071573;28;20188;-69
2021/12/25 13:26:47;;;;;;;3.17;2.40;;;22.20;49.30;;;;;;5054992;28;20212;-69
2021/12/25 13:29:19;;;;;;;2.97;2.13;;;22.20;49.30;;;;;;5054334;28;20173;-69
2021/12/25 13:31:49;;;;;;;3.90;2.08;;;22.10;49.20;;;;;;5071303;28;20172;-69
2021/12/25 13:34:23;;;;;;;2.22;2.03;;;22.10;49.20;;;;;;5071294;28;20177;-69
2021/12/25 13:36:54;;;;;;;2.22;2.03;;;22.10;49.30;;;;;;5071373;28;20378;-69
2021/12/25 13:39:32;;;;;;;2.78;1.92;;;22.20;49.30;;;;;;5053934;28;20221;-69
2021/12/25 13:42:15;;;;;;;2.28;2.00;;;22.10;49.30;;;;;;5054465;28;20182;-69
2021/12/25 13:44:44;;;;;;;2.50;2.30;;;22.20;49.30;;;;;;5071032;28;20185;-69
2021/12/25 13:47:13;;;;;;;2.60;2.03;;;22.20;49.30;;;;;;5054538;28;20201;-70
2021/12/25 13:49:46;;;;;;;2.78;2.00;;;22.10;49.20;;;;;;5072068;28;20209;-69
2021/12/25 13:52:24;;;;;;;2.53;2.00;;;22.20;49.30;;;;;;5054370;28;20170;-69
2021/12/25 13:55:12;;;;;;;2.05;1.90;;;22.10;49.20;;;;;;5054533;28;20173;-69
2021/12/25 13:57:56;;;;;;;1.88;1.77;;;22.20;49.30;;;;;;5054185;28;20170;-69
2021/12/25 14:00:57;;;;;;;2.33;1.73;;;22.20;49.30;;;;;;5072142;28;20259;-69
2021/12/25 14:03:26;;;;;;;1.88;1.77;;;22.10;49.20;;;;;;4990674;28;20291;-69
2021/12/25 14:05:54;;;;;;;3.00;2.00;;;22.10;49.20;;;;;;5055790;28;20218;-69
2021/12/25 14:08:24;;;;;;;2.20;2.00;;;22.10;49.20;;;;;;5053921;28;20178;-69
2021/12/25 14:10:52;;;;;;;2.28;2.00;;;22.10;49.20;;;;;;5070881;28;20240;-69
2021/12/25 14:13:21;;;;;;;2.15;1.92;;;22.20;49.20;;;;;;5054010;28;20192;-69
2021/12/25 14:15:51;;;;;;;1.75;1.65;;;22.10;49.20;;;;;;5071079;28;20182;-69
2021/12/25 14:18:21;;;;;;;2.17;1.83;;;22.10;49.20;;;;;;5071814;28;20195;-69
2021/12/25 14:20:47;;;;;;;1.73;1.63;;;22.20;49.30;;;;;;5054154;28;20213;-69
2021/12/25 14:23:21;;;;;;;1.70;1.60;;;22.10;49.20;;;;;;5053998;28;20189;-69
2021/12/25 14:25:58;;;;;;;2.00;1.80;;;22.10;49.20;;;;;;5071024;28;20232;-69
2021/12/25 14:28:30;;;;;;;1.73;1.63;;;22.20;49.30;;;;;;5053829;28;20667;-69
2021/12/25 14:31:07;;;;;;;1.73;1.63;;;22.10;49.20;;;;;;5054063;28;20216;-70
2021/12/25 14:33:37;;;;;;;2.60;2.03;;;22.10;49.20;;;;;;5053993;28;20209;-69
2021/12/25 14:36:11;;;;;;;2.17;1.98;;;22.10;49.20;;;;;;5053920;28;20191;-70
2021/12/25 14:38:45;;;;;;;2.28;2.10;;;22.10;49.20;;;;;;5053628;28;20185;-69
2021/12/25 14:41:13;;;;;;;1.77;1.67;;;22.10;49.20;;;;;;5070869;28;20212;-69
2021/12/25 14:43:41;;;;;;;1.75;1.65;;;22.20;49.30;;;;;;5070548;28;20702;-69